Time;durP1;ratioP1;P1;durP2;ratioP2;P2;SDS_P1;SDS_P2;PMS_P1;PMS_P2;Temp;Humidity;BMP_temperature;BMP_pressure;BME280_temperature;BME280_humidity;BME280_pressure;Samples;Min_cycle;Max_cycle;Signal;HPM_P1;HPM_P2
2022/08/01 00:01:34;;;;;;;3.23;2.70;;;;;;;;;;5040508;28;20743;-51
2022/08/01 00:04:06;;;;;;;3.03;2.60;;;;;;;;;;5052739;28;20544;-51
2022/08/01 00:06:32;;;;;;;3.30;2.70;;;;;;;;;;5053710;28;20460;-52
2022/08/01 00:08:59;;;;;;;4.23;2.67;;;;;;;;;;5055847;28;20430;-51
2022/08/01 00:11:25;;;;;;;8.23;2.93;;;;;;;;;;5050904;28;20437;-52
2022/08/01 00:13:51;;;;;;;3.60;2.90;;;;;;;;;;5038209;28;20512;-53
2022/08/01 00:16:17;;;;;;;4.03;3.03;;;;;;;;;;5056591;28;21147;-52
2022/08/01 00:18:43;;;;;;;6.47;2.50;;;;;;;;;;5053349;28;20444;-51
2022/08/01 00:21:09;;;;;;;2.70;2.50;;;;;;;;;;5052026;28;20439;-52
2022/08/01 00:23:36;;;;;;;4.00;3.23;;;;;;;;;;5055439;28;20481;-52
2022/08/01 00:26:02;;;;;;;3.93;3.13;;;;;;;;;;5036875;28;21219;-52
2022/08/01 00:28:28;;;;;;;3.03;2.60;;;;;;;;;;5052927;28;20579;-52
2022/08/01 00:30:54;;;;;;;4.40;3.30;;;;;;;;;;5056329;28;24717;-52
2022/08/01 00:33:21;;;;;;;3.30;3.00;;;;;;;;;;5052261;28;20437;-51
2022/08/01 00:35:48;;;;;;;4.20;2.70;;;;;;;;;;5052892;28;20649;-51
2022/08/01 00:38:13;;;;;;;2.60;2.40;;;;;;;;;;5049410;28;20441;-52
2022/08/01 00:40:39;;;;;;;3.67;3.13;;;;;;;;;;5049478;28;20187;-51
2022/08/01 00:43:06;;;;;;;11.93;3.47;;;;;;;;;;5048889;28;20821;-50
2022/08/01 00:45:32;;;;;;;3.27;2.80;;;;;;;;;;5052110;28;20441;-54
2022/08/01 00:47:58;;;;;;;3.30;2.70;;;;;;;;;;5056027;28;20438;-50
2022/08/01 00:50:24;;;;;;;2.97;2.70;;;;;;;;;;5054061;28;20177;-52
2022/08/01 00:52:50;;;;;;;4.33;3.43;;;;;;;;;;5055325;28;20437;-54
2022/08/01 00:55:17;;;;;;;4.03;3.00;;;;;;;;;;5019908;28;20458;-52
2022/08/01 00:57:43;;;;;;;4.57;3.33;;;;;;;;;;5047978;28;20522;-50
2022/08/01 01:00:17;;;;;;;4.30;2.50;;;;;;;;;;5055780;28;20437;-52
2022/08/01 01:02:45;;;;;;;3.07;2.60;;;;;;;;;;5037998;28;20503;-51
2022/08/01 01:05:11;;;;;;;4.20;3.20;;;;;;;;;;5037104;28;20486;-51
2022/08/01 01:07:42;;;;;;;4.70;2.87;;;;;;;;;;5033141;28;20437;-52
2022/08/01 01:10:13;;;;;;;3.63;3.27;;;;;;;;;;5050568;28;20437;-52
2022/08/01 01:12:45;;;;;;;3.03;2.73;;;;;;;;;;5055814;28;20591;-52
2022/08/01 01:15:16;;;;;;;4.63;4.23;;;;;;;;;;5035929;28;21703;-52
2022/08/01 01:17:46;;;;;;;3.37;2.83;;;;;;;;;;5051829;28;20783;-52
2022/08/01 01:20:15;;;;;;;4.30;3.43;;;;;;;;;;5039848;28;21041;-53
2022/08/01 01:22:53;;;;;;;7.30;3.10;;;;;;;;;;5053765;28;21255;-51
2022/08/01 01:25:38;;;;;;;3.40;2.83;;;;;;;;;;5054738;28;20468;-52
2022/08/01 01:28:04;;;;;;;3.97;2.93;;;;;;;;;;5055261;28;21014;-52
2022/08/01 01:30:32;;;;;;;5.13;3.20;;;;;;;;;;5056152;28;20490;-51
2022/08/01 01:33:05;;;;;;;3.00;2.53;;;;;;;;;;5038152;28;21045;-51
2022/08/01 01:35:36;;;;;;;2.43;2.20;;;;;;;;;;5054664;28;20430;-52
2022/08/01 01:38:05;;;;;;;3.33;2.90;;;;;;;;;;5058457;28;20455;-52
2022/08/01 01:40:31;;;;;;;4.47;3.33;;;;;;;;;;5057035;28;20505;-51
2022/08/01 01:42:57;;;;;;;3.13;2.83;;;;;;;;;;5038989;28;20510;-52
2022/08/01 01:45:26;;;;;;;3.20;2.90;;;;;;;;;;5038109;28;21142;-52
2022/08/01 01:47:53;;;;;;;3.20;2.90;;;;;;;;;;5057876;28;20445;-52
2022/08/01 01:50:20;;;;;;;5.67;3.43;;;;;;;;;;5057031;28;20433;-52
2022/08/01 01:52:51;;;;;;;3.50;3.20;;;;;;;;;;5043542;28;20430;-53
2022/08/01 01:55:22;;;;;;;3.37;2.67;;;;;;;;;;5055433;28;20852;-52
2022/08/01 01:57:48;;;;;;;4.07;2.60;;;;;;;;;;5036697;28;20477;-50
2022/08/01 02:00:14;;;;;;;3.27;2.97;;;;;;;;;;5056186;28;21202;-52
2022/08/01 02:02:41;;;;;;;4.70;3.13;;;;;;;;;;5036396;28;20232;-52
2022/08/01 02:05:09;;;;;;;4.40;3.97;;;;;;;;;;5057182;28;20528;-51
2022/08/01 02:07:35;;;;;;;3.80;3.10;;;;;;;;;;5039395;28;20464;-52
2022/08/01 02:10:01;;;;;;;3.43;3.13;;;;;;;;;;5036291;28;20430;-52
2022/08/01 02:12:27;;;;;;;5.27;3.80;;;;;;;;;;5041145;28;20530;-52
2022/08/01 02:14:53;;;;;;;3.30;3.00;;;;;;;;;;5053341;28;20509;-53
2022/08/01 02:17:19;;;;;;;4.00;3.27;;;;;;;;;;5053731;28;20174;-52
2022/08/01 02:19:45;;;;;;;3.50;3.20;;;;;;;;;;5040892;28;20453;-52
2022/08/01 02:22:12;;;;;;;3.27;2.80;;;;;;;;;;5038305;28;21377;-51
2022/08/01 02:24:43;;;;;;;3.67;3.10;;;;;;;;;;5057209;28;20445;-52
2022/08/01 02:27:10;;;;;;;4.40;3.50;;;;;;;;;;5037322;28;20469;-53
2022/08/01 02:29:46;;;;;;;3.47;2.77;;;;;;;;;;5039912;28;20435;-51
2022/08/01 02:32:15;;;;;;;2.90;2.67;;;;;;;;;;5056004;28;20444;-51
2022/08/01 02:34:42;;;;;;;3.67;3.37;;;;;;;;;;5051062;28;20430;-51
2022/08/01 02:37:08;;;;;;;7.07;3.37;;;;;;;;;;5054801;28;20438;-51
2022/08/01 02:39:36;;;;;;;3.57;3.23;;;;;;;;;;5059048;28;20528;-52
2022/08/01 02:42:03;;;;;;;4.40;3.70;;;;;;;;;;5058385;28;20928;-52
2022/08/01 02:44:30;;;;;;;3.77;3.33;;;;;;;;;;5054520;28;20493;-53
2022/08/01 02:47:02;;;;;;;3.57;3.27;;;;;;;;;;5057161;28;20802;-54
2022/08/01 02:49:32;;;;;;;3.53;3.23;;;;;;;;;;5055776;28;20436;-50
2022/08/01 02:51:58;;;;;;;4.00;2.83;;;;;;;;;;5055679;28;20433;-50
2022/08/01 02:54:28;;;;;;;3.50;2.77;;;;;;;;;;5040310;28;20441;-53
2022/08/01 02:56:56;;;;;;;3.40;2.93;;;;;;;;;;5051503;28;20172;-51
2022/08/01 02:59:25;;;;;;;4.77;3.13;;;;;;;;;;5053369;28;21026;-52
2022/08/01 03:01:51;;;;;;;3.90;3.20;;;;;;;;;;5054293;28;20638;-51
2022/08/01 03:04:17;;;;;;;4.13;3.00;;;;;;;;;;5039507;28;20477;-51
2022/08/01 03:06:43;;;;;;;3.10;2.70;;;;;;;;;;5054759;28;20515;-51
2022/08/01 03:09:09;;;;;;;3.40;3.10;;;;;;;;;;5035997;28;20918;-52
2022/08/01 03:11:35;;;;;;;4.27;2.83;;;;;;;;;;5050645;28;20428;-51
2022/08/01 03:14:02;;;;;;;3.23;2.93;;;;;;;;;;5042184;28;20437;-52
2022/08/01 03:16:28;;;;;;;3.33;2.80;;;;;;;;;;5052368;28;22305;-51
2022/08/01 03:18:54;;;;;;;3.10;2.90;;;;;;;;;;5056234;28;20950;-52
2022/08/01 03:21:21;;;;;;;3.60;2.73;;;;;;;;;;5053190;28;20421;-53
2022/08/01 03:23:47;;;;;;;2.83;2.43;;;;;;;;;;5037300;28;20465;-52
2022/08/01 03:26:13;;;;;;;2.70;2.50;;;;;;;;;;5037493;28;20449;-52
2022/08/01 03:28:39;;;;;;;4.17;2.93;;;;;;;;;;5055175;28;20187;-50
2022/08/01 03:31:07;;;;;;;4.10;2.70;;;;;;;;;;5053144;28;20435;-51
2022/08/01 03:33:33;;;;;;;3.10;2.80;;;;;;;;;;5037033;28;20430;-52
2022/08/01 03:36:05;;;;;;;3.73;2.80;;;;;;;;;;5037131;28;20437;-52
2022/08/01 03:38:31;;;;;;;3.40;3.07;;;;;;;;;;5052917;28;20175;-51
2022/08/01 03:41:04;;;;;;;4.13;3.23;;;;;;;;;;5037811;28;20440;-51
2022/08/01 03:43:41;;;;;;;3.30;3.00;;;;;;;;;;5040755;28;20224;-51
2022/08/01 03:46:10;;;;;;;3.40;2.90;;;;;;;;;;5035236;28;20432;-51
2022/08/01 03:48:38;;;;;;;4.93;3.00;;;;;;;;;;5056083;28;20437;-51
2022/08/01 03:51:04;;;;;;;3.90;2.87;;;;;;;;;;5038432;28;20453;-51
2022/08/01 03:53:31;;;;;;;3.00;2.70;;;;;;;;;;5053619;28;20441;-52
2022/08/01 03:55:57;;;;;;;3.10;2.63;;;;;;;;;;5023371;28;20449;-51
2022/08/01 03:58:28;;;;;;;5.00;3.67;;;;;;;;;;5026861;28;20450;-51
2022/08/01 04:00:55;;;;;;;3.33;3.03;;;;;;;;;;5048637;28;20201;-51
2022/08/01 04:03:21;;;;;;;4.70;2.97;;;;;;;;;;5037575;28;20489;-52
2022/08/01 04:05:48;;;;;;;3.63;2.53;;;;;;;;;;5037743;28;20486;-52
2022/08/01 04:08:15;;;;;;;4.80;2.80;;;;;;;;;;5046394;28;20449;-51
2022/08/01 04:10:41;;;;;;;4.23;2.37;;;;;;;;;;5049637;28;20440;-52
2022/08/01 04:13:07;;;;;;;3.07;2.63;;;;;;;;;;5031614;28;20429;-59
2022/08/01 04:15:34;;;;;;;3.27;2.60;;;;;;;;;;5040156;28;20949;-52
2022/08/01 04:18:01;;;;;;;4.10;2.77;;;;;;;;;;5051334;28;20503;-52
2022/08/01 04:20:28;;;;;;;7.10;2.57;;;;;;;;;;5035824;28;20531;-52
2022/08/01 04:22:59;;;;;;;5.63;3.07;;;;;;;;;;5055627;28;20477;-53
2022/08/01 04:25:30;;;;;;;3.80;2.73;;;;;;;;;;5049811;28;20444;-52
2022/08/01 04:27:56;;;;;;;4.23;3.87;;;;;;;;;;5033554;28;20445;-52
2022/08/01 04:30:34;;;;;;;4.20;2.83;;;;;;;;;;5033063;28;20448;-52
2022/08/01 04:33:00;;;;;;;3.23;2.43;;;;;;;;;;5030559;28;20190;-52
2022/08/01 04:35:27;;;;;;;3.23;2.60;;;;;;;;;;5044819;28;20440;-53
2022/08/01 04:37:52;;;;;;;3.10;2.80;;;;;;;;;;5044685;28;20434;-53
2022/08/01 04:40:19;;;;;;;3.50;2.70;;;;;;;;;;5029093;28;20433;-52
2022/08/01 04:42:48;;;;;;;3.10;2.43;;;;;;;;;;5054794;28;20469;-52
2022/08/01 04:45:14;;;;;;;3.67;2.83;;;;;;;;;;5057116;28;20870;-51
2022/08/01 04:47:43;;;;;;;4.40;2.90;;;;;;;;;;5056030;28;20551;-52
2022/08/01 04:50:10;;;;;;;5.80;2.60;;;;;;;;;;5040888;28;20708;-52
2022/08/01 04:52:37;;;;;;;2.30;2.00;;;;;;;;;;5061920;28;20455;-53
2022/08/01 04:55:08;;;;;;;4.50;2.97;;;;;;;;;;5042607;28;20445;-53
2022/08/01 04:57:35;;;;;;;4.10;2.90;;;;;;;;;;5038862;28;20469;-53
2022/08/01 05:00:02;;;;;;;2.97;2.37;;;;;;;;;;5039865;28;20426;-52
2022/08/01 05:02:28;;;;;;;4.20;2.90;;;;;;;;;;5054935;28;20564;-52
2022/08/01 05:04:57;;;;;;;2.63;2.33;;;;;;;;;;5058574;28;20426;-51
2022/08/01 05:07:24;;;;;;;3.67;2.80;;;;;;;;;;5057686;28;20448;-53
2022/08/01 05:09:50;;;;;;;3.67;2.67;;;;;;;;;;5048607;28;20437;-52
2022/08/01 05:12:16;;;;;;;3.80;2.50;;;;;;;;;;5062330;28;20457;-50
2022/08/01 05:14:42;;;;;;;3.97;2.27;;;;;;;;;;5057680;28;20437;-52
2022/08/01 05:17:08;;;;;;;4.40;3.07;;;;;;;;;;5054464;28;20467;-51
2022/08/01 05:19:35;;;;;;;2.87;2.50;;;;;;;;;;5056899;28;20183;-52
2022/08/01 05:22:04;;;;;;;3.40;3.10;;;;;;;;;;5042440;28;20441;-51
2022/08/01 05:24:33;;;;;;;3.00;2.70;;;;;;;;;;5054034;28;21869;-52
2022/08/01 05:26:59;;;;;;;8.00;2.53;;;;;;;;;;5055899;28;20469;-52
2022/08/01 05:29:25;;;;;;;2.40;2.00;;;;;;;;;;5060880;28;20498;-52
2022/08/01 05:31:58;;;;;;;2.87;2.33;;;;;;;;;;5059710;28;20464;-52
2022/08/01 05:34:25;;;;;;;2.90;2.27;;;;;;;;;;5062981;28;20444;-51
2022/08/01 05:36:51;;;;;;;3.10;2.50;;;;;;;;;;5046690;28;20433;-52
2022/08/01 05:39:17;;;;;;;3.20;2.70;;;;;;;;;;5059876;28;20436;-54
2022/08/01 05:41:43;;;;;;;3.57;2.67;;;;;;;;;;5041906;28;20429;-52
2022/08/01 05:44:10;;;;;;;4.70;2.63;;;;;;;;;;5057236;28;20470;-53
2022/08/01 05:46:36;;;;;;;2.57;2.00;;;;;;;;;;5057851;28;20795;-52
2022/08/01 05:49:02;;;;;;;3.10;2.30;;;;;;;;;;5063753;28;20529;-53
2022/08/01 05:51:28;;;;;;;6.90;2.47;;;;;;;;;;5063602;28;20434;-51
2022/08/01 05:53:54;;;;;;;5.53;2.63;;;;;;;;;;5059677;28;20456;-52
2022/08/01 05:56:20;;;;;;;3.17;2.00;;;;;;;;;;5060032;28;20446;-52
2022/08/01 05:58:46;;;;;;;2.90;2.30;;;;;;;;;;5066968;28;20441;-52
2022/08/01 06:01:12;;;;;;;3.67;2.40;;;;;;;;;;5064170;28;20434;-52
2022/08/01 06:03:38;;;;;;;3.03;2.07;;;;;;;;;;5062682;28;20969;-51
2022/08/01 06:06:04;;;;;;;3.80;2.20;;;;;;;;;;5061464;28;20182;-51
2022/08/01 06:08:30;;;;;;;3.67;2.13;;;;;;;;;;5060183;28;20788;-51
2022/08/01 06:10:56;;;;;;;3.50;1.90;;;;;;;;;;5062844;28;20508;-51
2022/08/01 06:13:22;;;;;;;3.13;2.17;;;;;;;;;;5060945;28;20452;-51
2022/08/01 06:15:48;;;;;;;2.50;2.03;;;;;;;;;;5053598;28;20432;-52
2022/08/01 06:18:15;;;;;;;2.40;2.00;;;;;;;;;;5059697;28;20437;-53
2022/08/01 06:20:42;;;;;;;3.33;2.40;;;;;;;;;;5050544;28;20437;-51
2022/08/01 06:23:08;;;;;;;4.23;2.37;;;;;;;;;;5063124;28;20576;-58
2022/08/01 06:25:35;;;;;;;2.57;1.70;;;;;;;;;;5055743;28;20446;-51
2022/08/01 06:28:02;;;;;;;2.83;1.97;;;;;;;;;;5046946;28;20815;-53
2022/08/01 06:30:28;;;;;;;2.97;2.40;;;;;;;;;;5038926;28;20520;-53
2022/08/01 06:32:55;;;;;;;3.93;2.23;;;;;;;;;;5064749;28;20429;-51
2022/08/01 06:35:21;;;;;;;2.90;2.40;;;;;;;;;;5039616;28;20465;-52
2022/08/01 06:37:48;;;;;;;3.90;2.03;;;;;;;;;;5058728;28;20441;-52
2022/08/01 06:40:14;;;;;;;2.23;1.80;;;;;;;;;;5057719;28;20564;-53
2022/08/01 06:42:40;;;;;;;3.30;2.00;;;;;;;;;;5058420;28;20865;-56
2022/08/01 06:45:07;;;;;;;5.37;2.60;;;;;;;;;;5056820;28;20487;-53
2022/08/01 06:47:34;;;;;;;2.50;2.00;;;;;;;;;;5057805;28;20936;-53
2022/08/01 06:49:59;;;;;;;4.47;2.50;;;;;;;;;;5055046;28;20434;-52
2022/08/01 06:52:26;;;;;;;3.00;2.33;;;;;;;;;;5062056;28;20444;-53
2022/08/01 06:55:14;;;;;;;3.13;2.13;;;;;;;;;;4981510;28;20645;-53
2022/08/01 06:58:07;;;;;;;9.83;2.10;;;;;;;;;;5023506;28;21262;-52
2022/08/01 07:00:37;;;;;;;4.60;4.20;;;;;;;;;;5045479;28;20452;-52
2022/08/01 07:03:03;;;;;;;3.23;2.07;;;;;;;;;;5059320;28;20477;-52
2022/08/01 07:05:30;;;;;;;2.70;2.03;;;;;;;;;;5041661;28;20225;-53
2022/08/01 07:08:14;;;;;;;2.40;1.80;;;;;;;;;;5039394;28;20441;-51
2022/08/01 07:10:43;;;;;;;2.90;2.00;;;;;;;;;;5055202;28;20438;-51
2022/08/01 07:13:10;;;;;;;3.77;2.30;;;;;;;;;;5040843;28;20991;-52
2022/08/01 07:15:36;;;;;;;2.53;1.93;;;;;;;;;;5060943;28;20437;-52
2022/08/01 07:18:03;;;;;;;4.50;2.27;;;;;;;;;;5052860;28;20439;-52
2022/08/01 07:20:29;;;;;;;2.97;1.97;;;;;;;;;;5057627;28;20724;-51
2022/08/01 07:22:55;;;;;;;1.97;1.60;;;;;;;;;;5047930;28;20879;-51
2022/08/01 07:25:21;;;;;;;3.87;1.53;;;;;;;;;;5052569;28;20473;-52
2022/08/01 07:27:51;;;;;;;2.10;1.70;;;;;;;;;;5015513;28;20568;-52
2022/08/01 07:30:17;;;;;;;2.43;1.80;;;;;;;;;;5019505;28;20454;-52
2022/08/01 07:32:43;;;;;;;2.80;2.10;;;;;;;;;;5018655;28;20464;-52
2022/08/01 07:35:09;;;;;;;2.47;2.07;;;;;;;;;;5059517;28;20183;-52
2022/08/01 07:37:35;;;;;;;4.00;2.03;;;;;;;;;;5049667;28;20180;-52
2022/08/01 07:40:03;;;;;;;2.50;1.70;;;;;;;;;;5019335;28;20441;-54
2022/08/01 07:42:29;;;;;;;2.10;1.70;;;;;;;;;;5053372;28;20437;-53
2022/08/01 07:44:55;;;;;;;2.60;2.00;;;;;;;;;;5050959;28;20446;-53
2022/08/01 07:47:25;;;;;;;3.20;2.27;;;;;;;;;;5059142;28;21729;-51
2022/08/01 07:49:51;;;;;;;4.90;2.60;;;;;;;;;;5034135;28;20478;-51
2022/08/01 07:52:17;;;;;;;4.23;1.90;;;;;;;;;;5058134;28;20421;-52
2022/08/01 07:54:43;;;;;;;3.30;2.57;;;;;;;;;;5053297;28;20781;-52
2022/08/01 07:57:09;;;;;;;2.73;1.67;;;;;;;;;;5060670;28;20576;-53
2022/08/01 07:59:35;;;;;;;3.63;2.30;;;;;;;;;;5016561;28;23559;-52
2022/08/01 08:02:01;;;;;;;6.50;2.80;;;;;;;;;;5050728;28;20438;-56
2022/08/01 08:04:27;;;;;;;2.73;2.17;;;;;;;;;;5046759;28;20512;-53
2022/08/01 08:06:53;;;;;;;4.00;1.90;;;;;;;;;;5038557;28;20440;-55
2022/08/01 08:09:19;;;;;;;3.10;2.07;;;;;;;;;;5025455;28;21059;-53
2022/08/01 08:11:45;;;;;;;4.40;2.27;;;;;;;;;;5053357;28;20180;-53
2022/08/01 08:14:12;;;;;;;2.23;1.83;;;;;;;;;;5033680;28;20864;-52
2022/08/01 08:16:38;;;;;;;3.13;2.80;;;;;;;;;;5032822;28;20440;-52
2022/08/01 08:19:04;;;;;;;5.13;2.30;;;;;;;;;;5042235;28;21060;-53
2022/08/01 08:21:30;;;;;;;3.03;2.73;;;;;;;;;;5036417;28;20441;-52
2022/08/01 08:26:41;;;;;;;2.87;2.23;;;;;;;;;;5050166;28;20440;-52
2022/08/01 08:29:13;;;;;;;3.60;2.97;;;;;;;;;;5045081;28;20437;-52
2022/08/01 08:31:41;;;;;;;2.57;2.27;;;;;;;;;;5032540;28;20453;-52
2022/08/01 08:34:07;;;;;;;4.43;2.20;;;;;;;;;;5043502;28;21316;-52
2022/08/01 08:36:33;;;;;;;6.77;2.33;;;;;;;;;;5043404;28;20451;-53
2022/08/01 08:39:02;;;;;;;3.27;2.70;;;;;;;;;;5046971;28;20549;-52
2022/08/01 08:41:35;;;;;;;3.17;2.57;;;;;;;;;;5045805;28;20260;-52
2022/08/01 08:44:05;;;;;;;3.97;3.57;;;;;;;;;;5045137;28;20481;-53
2022/08/01 08:46:34;;;;;;;4.93;3.67;;;;;;;;;;5049311;28;21391;-50
2022/08/01 08:49:01;;;;;;;4.27;3.37;;;;;;;;;;5057611;28;20513;-52
2022/08/01 08:51:27;;;;;;;3.17;2.20;;;;;;;;;;5057724;28;20459;-52
2022/08/01 08:53:54;;;;;;;3.33;2.90;;;;;;;;;;5040440;28;20851;-52
2022/08/01 08:56:20;;;;;;;5.17;3.13;;;;;;;;;;5036898;28;20524;-52
2022/08/01 08:59:16;;;;;;;3.40;2.90;;;;;;;;;;5059340;28;20533;-52
2022/08/01 09:01:50;;;;;;;4.73;3.83;;;;;;;;;;5054928;28;20174;-52
2022/08/01 09:04:41;;;;;;;4.90;4.00;;;;;;;;;;5031979;28;20503;-56
2022/08/01 09:07:08;;;;;;;5.17;4.60;;;;;;;;;;5051660;28;20426;-50
2022/08/01 09:09:34;;;;;;;3.83;3.50;;;;;;;;;;5025942;28;20441;-53
2022/08/01 09:12:00;;;;;;;4.53;4.03;;;;;;;;;;5057920;28;21011;-52
2022/08/01 09:14:34;;;;;;;5.63;4.37;;;;;;;;;;5052283;28;20449;-52
2022/08/01 09:17:07;;;;;;;4.73;4.23;;;;;;;;;;5059830;28;20425;-52
2022/08/01 09:19:37;;;;;;;5.70;5.10;;;;;;;;;;5029848;28;20452;-53
2022/08/01 09:22:03;;;;;;;7.60;5.40;;;;;;;;;;5057450;28;20445;-53
2022/08/01 09:24:29;;;;;;;8.70;5.70;;;;;;;;;;5054631;28;20477;-52
2022/08/01 09:26:55;;;;;;;7.40;6.70;;;;;;;;;;5059755;28;20437;-52
2022/08/01 09:29:22;;;;;;;8.47;7.67;;;;;;;;;;5032536;28;20452;-52
2022/08/01 09:31:49;;;;;;;7.10;6.50;;;;;;;;;;5058314;28;20434;-52
2022/08/01 09:34:15;;;;;;;8.03;7.33;;;;;;;;;;5033229;28;20436;-53
2022/08/01 09:36:55;;;;;;;9.53;8.63;;;;;;;;;;5058177;28;20425;-50
2022/08/01 09:39:22;;;;;;;8.47;7.67;;;;;;;;;;5017455;28;20445;-53
2022/08/01 09:41:48;;;;;;;7.30;6.53;;;;;;;;;;5062028;28;20516;-53
2022/08/01 09:44:17;;;;;;;9.10;5.67;;;;;;;;;;5028471;28;20480;-51
2022/08/01 09:46:55;;;;;;;6.70;5.90;;;;;;;;;;5056087;28;20507;-52
2022/08/01 09:49:31;;;;;;;8.00;6.37;;;;;;;;;;5026696;28;20446;-52
2022/08/01 09:51:57;;;;;;;6.33;5.83;;;;;;;;;;5055341;28;20445;-52
2022/08/01 09:54:30;;;;;;;6.40;5.73;;;;;;;;;;5018249;28;20901;-53
2022/08/01 09:56:56;;;;;;;7.10;6.40;;;;;;;;;;5033723;28;20568;-52
2022/08/01 09:59:23;;;;;;;5.90;5.30;;;;;;;;;;5042207;28;20444;-52
2022/08/01 10:01:49;;;;;;;7.23;5.90;;;;;;;;;;5047574;28;20559;-51
2022/08/01 10:04:15;;;;;;;6.07;5.57;;;;;;;;;;5056804;28;20480;-52
2022/08/01 10:06:43;;;;;;;9.83;5.50;;;;;;;;;;5054317;28;20430;-53
2022/08/01 10:09:10;;;;;;;6.20;5.60;;;;;;;;;;5047073;28;20576;-51
2022/08/01 10:11:38;;;;;;;5.53;5.03;;;;;;;;;;5014006;28;21641;-52
2022/08/01 10:14:04;;;;;;;6.20;5.33;;;;;;;;;;5054164;28;20450;-52
2022/08/01 10:16:30;;;;;;;6.23;5.63;;;;;;;;;;5053469;28;20433;-53
2022/08/01 10:18:56;;;;;;;5.83;5.23;;;;;;;;;;5051916;28;20449;-53
2022/08/01 10:21:22;;;;;;;4.63;4.17;;;;;;;;;;5039885;28;20469;-53
2022/08/01 10:23:49;;;;;;;6.90;4.20;;;;;;;;;;5019850;28;20218;-51
2022/08/01 10:26:15;;;;;;;4.20;3.80;;;;;;;;;;5041308;28;20484;-51
2022/08/01 10:28:41;;;;;;;4.70;4.20;;;;;;;;;;5011227;28;20445;-52
2022/08/01 10:31:08;;;;;;;4.17;3.63;;;;;;;;;;5056501;28;20419;-52
2022/08/01 10:33:35;;;;;;;5.47;4.27;;;;;;;;;;5033356;28;20454;-52
2022/08/01 10:36:01;;;;;;;4.50;4.10;;;;;;;;;;5052853;28;21216;-57
2022/08/01 10:38:28;;;;;;;4.80;3.70;;;;;;;;;;5024459;28;20442;-52
2022/08/01 10:40:54;;;;;;;4.60;3.20;;;;;;;;;;5058348;28;20437;-53
2022/08/01 10:43:20;;;;;;;3.70;3.10;;;;;;;;;;5002307;28;20470;-53
2022/08/01 10:45:46;;;;;;;4.60;3.73;;;;;;;;;;5053279;28;20485;-51
2022/08/01 10:48:12;;;;;;;4.87;4.20;;;;;;;;;;5032387;28;20433;-52
2022/08/01 10:50:39;;;;;;;5.90;3.77;;;;;;;;;;5055527;28;20294;-51
2022/08/01 10:53:12;;;;;;;4.80;4.10;;;;;;;;;;5015881;28;20203;-52
2022/08/01 10:55:48;;;;;;;6.77;4.37;;;;;;;;;;5063450;28;20506;-52
2022/08/01 10:58:14;;;;;;;4.80;4.40;;;;;;;;;;5034461;28;20437;-53
2022/08/01 11:00:40;;;;;;;5.13;4.50;;;;;;;;;;5060410;28;20434;-52
2022/08/01 11:03:07;;;;;;;4.70;4.30;;;;;;;;;;5043263;28;20469;-51
2022/08/01 11:05:34;;;;;;;6.90;4.23;;;;;;;;;;5059734;28;20429;-51
2022/08/01 11:08:04;;;;;;;5.73;4.37;;;;;;;;;;5038632;28;20438;-52
2022/08/01 11:10:40;;;;;;;4.70;4.30;;;;;;;;;;5058901;28;20545;-52
2022/08/01 11:13:11;;;;;;;5.13;4.10;;;;;;;;;;5058182;28;20504;-52
2022/08/01 11:15:37;;;;;;;4.70;4.30;;;;;;;;;;5056110;28;20492;-52
2022/08/01 11:18:04;;;;;;;4.53;4.13;;;;;;;;;;5021459;28;20437;-52
2022/08/01 11:20:33;;;;;;;6.07;3.70;;;;;;;;;;5062111;28;21137;-52
2022/08/01 11:25:26;;;;;;;4.00;3.60;;;;;;;;;;5061793;28;20445;-51
2022/08/01 11:28:11;;;;;;;4.57;3.27;;;;;;;;;;5047661;28;20434;-53
2022/08/01 11:30:37;;;;;;;3.13;2.80;;;;;;;;;;5063094;28;20460;-53
2022/08/01 11:33:03;;;;;;;4.83;4.37;;;;;;;;;;5035616;28;20442;-53
2022/08/01 11:35:29;;;;;;;6.40;3.70;;;;;;;;;;5044942;28;20472;-53
2022/08/01 11:37:56;;;;;;;3.63;3.33;;;;;;;;;;5040361;28;20941;-53
2022/08/01 11:40:23;;;;;;;3.07;2.73;;;;;;;;;;5034519;28;20441;-53
2022/08/01 11:42:49;;;;;;;4.70;3.27;;;;;;;;;;5030722;28;20850;-53
2022/08/01 11:45:15;;;;;;;3.80;3.50;;;;;;;;;;5053915;28;20438;-53
2022/08/01 11:47:48;;;;;;;4.80;3.70;;;;;;;;;;5028367;28;20770;-52
2022/08/01 11:50:29;;;;;;;6.17;3.10;;;;;;;;;;5051995;28;20445;-53
2022/08/01 11:53:02;;;;;;;4.00;3.60;;;;;;;;;;5041691;28;21008;-53
2022/08/01 11:55:28;;;;;;;3.97;3.63;;;;;;;;;;5051230;28;20958;-53
2022/08/01 11:58:05;;;;;;;4.30;2.80;;;;;;;;;;5031097;28;21202;-53
2022/08/01 12:00:31;;;;;;;3.10;2.37;;;;;;;;;;5048992;28;20433;-53
2022/08/01 12:02:57;;;;;;;3.23;2.83;;;;;;;;;;5026978;28;20682;-54
2022/08/01 12:05:23;;;;;;;3.63;2.80;;;;;;;;;;5054127;28;20444;-52
2022/08/01 12:07:50;;;;;;;4.00;3.00;;;;;;;;;;5032254;28;20425;-52
2022/08/01 12:10:16;;;;;;;3.10;2.83;;;;;;;;;;5032322;28;20226;-52
2022/08/01 12:12:46;;;;;;;3.57;3.27;;;;;;;;;;5056779;28;20433;-52
2022/08/01 12:15:12;;;;;;;3.40;3.10;;;;;;;;;;5042165;28;20444;-52
2022/08/01 12:17:40;;;;;;;5.60;2.80;;;;;;;;;;5059990;28;20433;-52
2022/08/01 12:20:07;;;;;;;3.10;2.57;;;;;;;;;;5004328;28;20453;-53
2022/08/01 12:22:33;;;;;;;3.60;3.03;;;;;;;;;;5057240;28;20951;-53
2022/08/01 12:25:06;;;;;;;3.33;2.83;;;;;;;;;;5053139;28;20810;-53
2022/08/01 12:27:31;;;;;;;7.20;3.80;;;;;;;;;;5061206;28;20936;-53
2022/08/01 12:29:58;;;;;;;4.70;2.83;;;;;;;;;;5054451;28;20800;-53
2022/08/01 12:32:29;;;;;;;3.33;3.03;;;;;;;;;;5059371;28;20206;-53
2022/08/01 12:34:55;;;;;;;3.80;3.50;;;;;;;;;;5030217;28;20949;-53
2022/08/01 12:37:21;;;;;;;5.10;3.03;;;;;;;;;;5051769;28;20464;-52
2022/08/01 12:39:47;;;;;;;3.43;2.83;;;;;;;;;;5017046;28;20450;-53
2022/08/01 12:42:14;;;;;;;4.37;3.00;;;;;;;;;;5045228;28;20184;-54
2022/08/01 12:44:40;;;;;;;5.40;3.20;;;;;;;;;;5051513;28;20930;-53
2022/08/01 12:47:06;;;;;;;3.30;3.00;;;;;;;;;;5045273;28;20968;-53
2022/08/01 12:49:33;;;;;;;3.10;2.80;;;;;;;;;;5036769;28;20465;-52
2022/08/01 12:51:59;;;;;;;3.63;2.40;;;;;;;;;;5041304;28;20573;-52
2022/08/01 12:55:02;;;;;;;4.30;3.20;;;;;;;;;;5029557;28;20531;-54
2022/08/01 12:57:28;;;;;;;7.13;3.47;;;;;;;;;;4991732;28;20259;-53
2022/08/01 12:59:54;;;;;;;4.00;2.70;;;;;;;;;;5018269;28;20446;-53
2022/08/01 13:02:20;;;;;;;4.80;2.87;;;;;;;;;;5043124;28;20437;-52
2022/08/01 13:04:51;;;;;;;3.60;2.57;;;;;;;;;;5014624;28;20219;-58
2022/08/01 13:07:17;;;;;;;3.83;2.30;;;;;;;;;;5059208;28;20175;-52
2022/08/01 13:09:52;;;;;;;4.23;2.67;;;;;;;;;;5015914;28;20866;-53
2022/08/01 13:12:18;;;;;;;3.00;2.70;;;;;;;;;;5015819;28;21016;-52
2022/08/01 13:14:44;;;;;;;3.00;2.67;;;;;;;;;;5038028;28;20804;-53
2022/08/01 13:17:10;;;;;;;2.80;2.43;;;;;;;;;;5049823;28;20422;-53
2022/08/01 13:19:43;;;;;;;2.87;2.57;;;;;;;;;;5042010;28;20507;-52
2022/08/01 13:22:09;;;;;;;2.90;2.50;;;;;;;;;;5055212;28;20179;-53
2022/08/01 13:24:35;;;;;;;2.30;2.10;;;;;;;;;;5009576;28;20469;-53
2022/08/01 13:27:07;;;;;;;3.97;2.90;;;;;;;;;;5054119;28;20516;-54
2022/08/01 13:29:41;;;;;;;3.50;3.20;;;;;;;;;;5032612;28;20461;-56
2022/08/01 13:32:19;;;;;;;3.37;2.50;;;;;;;;;;5060684;28;20425;-53
2022/08/01 13:34:45;;;;;;;3.53;2.73;;;;;;;;;;5053493;28;20457;-53
2022/08/01 13:37:11;;;;;;;3.50;2.13;;;;;;;;;;5038199;28;20434;-53
2022/08/01 13:39:40;;;;;;;2.80;2.50;;;;;;;;;;5047739;28;20221;-53
2022/08/01 13:42:07;;;;;;;2.93;2.30;;;;;;;;;;5056045;28;20468;-53
2022/08/01 13:44:32;;;;;;;3.50;2.47;;;;;;;;;;5052651;28;20800;-53
2022/08/01 13:46:59;;;;;;;3.13;2.43;;;;;;;;;;5058304;28;20517;-53
2022/08/01 13:49:25;;;;;;;4.30;2.40;;;;;;;;;;5038977;28;21318;-53
2022/08/01 13:51:51;;;;;;;3.30;2.27;;;;;;;;;;5067350;28;20525;-53
2022/08/01 13:54:17;;;;;;;3.57;2.47;;;;;;;;;;5050425;28;20188;-52
2022/08/01 13:56:43;;;;;;;4.90;2.37;;;;;;;;;;5053890;28;20453;-52
2022/08/01 13:59:30;;;;;;;2.80;2.07;;;;;;;;;;5037793;28;20648;-53
2022/08/01 14:01:56;;;;;;;3.10;2.40;;;;;;;;;;5055052;28;20441;-53
2022/08/01 14:04:22;;;;;;;2.87;2.27;;;;;;;;;;5039320;28;20477;-53
2022/08/01 14:06:48;;;;;;;5.20;2.50;;;;;;;;;;5065531;28;20441;-53
2022/08/01 14:09:16;;;;;;;4.13;2.47;;;;;;;;;;5043235;28;21789;-53
2022/08/01 14:11:42;;;;;;;3.20;2.60;;;;;;;;;;5060211;28;20448;-53
2022/08/01 14:14:08;;;;;;;4.13;2.93;;;;;;;;;;5056541;28;20540;-52
2022/08/01 14:16:34;;;;;;;3.17;2.87;;;;;;;;;;5054416;28;20533;-53
2022/08/01 14:19:00;;;;;;;3.33;2.60;;;;;;;;;;5044066;28;20453;-53
2022/08/01 14:21:26;;;;;;;3.60;2.30;;;;;;;;;;5047672;28;20456;-53
2022/08/01 14:23:52;;;;;;;2.97;2.50;;;;;;;;;;5053187;28;20918;-53
2022/08/01 14:26:20;;;;;;;5.20;2.30;;;;;;;;;;5011944;28;20449;-52
2022/08/01 14:28:45;;;;;;;4.20;2.70;;;;;;;;;;5057309;28;20435;-53
2022/08/01 14:31:11;;;;;;;3.20;2.63;;;;;;;;;;4996385;28;20457;-52
2022/08/01 14:33:37;;;;;;;2.70;2.30;;;;;;;;;;5045887;28;20259;-52
2022/08/01 14:36:03;;;;;;;2.63;2.43;;;;;;;;;;5041776;28;21077;-53
2022/08/01 14:38:29;;;;;;;6.43;2.53;;;;;;;;;;5054428;28;20476;-51
2022/08/01 14:40:55;;;;;;;6.87;2.60;;;;;;;;;;5032877;28;21000;-53
2022/08/01 14:43:21;;;;;;;3.07;2.40;;;;;;;;;;5056955;28;20477;-54
2022/08/01 14:45:49;;;;;;;5.23;2.93;;;;;;;;;;5038957;28;20183;-53
2022/08/01 14:48:16;;;;;;;3.33;2.57;;;;;;;;;;5035923;28;20445;-54
2022/08/01 14:50:43;;;;;;;2.87;2.57;;;;;;;;;;5040267;28;20438;-52
2022/08/01 14:53:08;;;;;;;2.90;2.60;;;;;;;;;;5023157;28;20439;-54